sensor_id;sensor_type;location;lat;lon;timestamp;temperature;humidity
8152;DHT22;4117;53.622;9.958;2023-12-22T00:00:40;5.20;1.00
8152;DHT22;4117;53.622;9.958;2023-12-22T00:03:07;5.10;1.00
8152;DHT22;4117;53.622;9.958;2023-12-22T00:05:34;5.10;1.00
8152;DHT22;4117;53.622;9.958;2023-12-22T00:08:01;5.10;1.00
8152;DHT22;4117;53.622;9.958;2023-12-22T00:10:30;5.10;1.00
8152;DHT22;4117;53.622;9.958;2023-12-22T00:12:57;5.10;1.00
8152;DHT22;4117;53.622;9.958;2023-12-22T00:15:24;5.20;1.00
8152;DHT22;4117;53.622;9.958;2023-12-22T00:17:51;5.10;1.00
8152;DHT22;4117;53.622;9.958;2023-12-22T00:20:18;5.10;1.00
8152;DHT22;4117;53.622;9.958;2023-12-22T00:22:45;5.00;1.00
8152;DHT22;4117;53.622;9.958;2023-12-22T00:25:12;5.00;1.00
8152;DHT22;4117;53.622;9.958;2023-12-22T00:27:40;5.10;1.00
8152;DHT22;4117;53.622;9.958;2023-12-22T00:30:08;5.00;1.00
8152;DHT22;4117;53.622;9.958;2023-12-22T00:32:35;5.00;1.00
8152;DHT22;4117;53.622;9.958;2023-12-22T00:35:02;5.00;1.00
8152;DHT22;4117;53.622;9.958;2023-12-22T00:37:30;5.00;1.00
8152;DHT22;4117;53.622;9.958;2023-12-22T00:39:57;5.10;1.00
8152;DHT22;4117;53.622;9.958;2023-12-22T00:42:24;5.10;1.00
8152;DHT22;4117;53.622;9.958;2023-12-22T00:44:52;5.10;1.00
8152;DHT22;4117;53.622;9.958;2023-12-22T00:47:19;5.20;1.00
8152;DHT22;4117;53.622;9.958;2023-12-22T00:49:46;5.20;1.00
8152;DHT22;4117;53.622;9.958;2023-12-22T00:52:13;5.20;1.00
8152;DHT22;4117;53.622;9.958;2023-12-22T00:54:40;5.20;1.00
8152;DHT22;4117;53.622;9.958;2023-12-22T00:57:07;5.10;1.00
8152;DHT22;4117;53.622;9.958;2023-12-22T00:59:38;5.10;1.00
8152;DHT22;4117;53.622;9.958;2023-12-22T01:02:09;5.10;1.00
8152;DHT22;4117;53.622;9.958;2023-12-22T01:04:36;5.10;1.00
8152;DHT22;4117;53.622;9.958;2023-12-22T01:07:03;5.10;1.00
8152;DHT22;4117;53.622;9.958;2023-12-22T01:09:30;5.00;1.00
8152;DHT22;4117;53.622;9.958;2023-12-22T01:11:57;5.00;1.00
8152;DHT22;4117;53.622;9.958;2023-12-22T01:14:24;5.00;1.00
8152;DHT22;4117;53.622;9.958;2023-12-22T01:16:51;5.00;1.00
8152;DHT22;4117;53.622;9.958;2023-12-22T01:19:20;5.00;1.00
8152;DHT22;4117;53.622;9.958;2023-12-22T01:21:47;4.90;1.00
8152;DHT22;4117;53.622;9.958;2023-12-22T01:24:15;4.90;1.00
8152;DHT22;4117;53.622;9.958;2023-12-22T01:26:42;4.70;1.00
8152;DHT22;4117;53.622;9.958;2023-12-22T01:29:09;4.60;1.00
8152;DHT22;4117;53.622;9.958;2023-12-22T01:31:36;4.50;1.00
8152;DHT22;4117;53.622;9.958;2023-12-22T01:34:03;4.30;1.00
8152;DHT22;4117;53.622;9.958;2023-12-22T01:36:31;4.00;1.00
8152;DHT22;4117;53.622;9.958;2023-12-22T01:38:58;3.80;1.00
8152;DHT22;4117;53.622;9.958;2023-12-22T01:41:25;3.60;1.00
8152;DHT22;4117;53.622;9.958;2023-12-22T01:43:52;3.50;1.00
8152;DHT22;4117;53.622;9.958;2023-12-22T01:46:19;3.40;1.00
8152;DHT22;4117;53.622;9.958;2023-12-22T01:48:47;3.30;1.00
8152;DHT22;4117;53.622;9.958;2023-12-22T01:51:14;3.40;1.00
8152;DHT22;4117;53.622;9.958;2023-12-22T01:53:42;3.30;1.00
8152;DHT22;4117;53.622;9.958;2023-12-22T01:56:09;3.30;1.00
8152;DHT22;4117;53.622;9.958;2023-12-22T01:58:37;3.30;1.00
8152;DHT22;4117;53.622;9.958;2023-12-22T02:01:04;3.20;1.00
8152;DHT22;4117;53.622;9.958;2023-12-22T02:03:32;3.10;1.00
8152;DHT22;4117;53.622;9.958;2023-12-22T02:05:59;3.20;1.00
8152;DHT22;4117;53.622;9.958;2023-12-22T02:08:28;3.20;1.00
8152;DHT22;4117;53.622;9.958;2023-12-22T02:11:00;3.10;1.00
8152;DHT22;4117;53.622;9.958;2023-12-22T02:13:28;3.20;1.00
8152;DHT22;4117;53.622;9.958;2023-12-22T02:16:02;3.20;1.00
8152;DHT22;4117;53.622;9.958;2023-12-22T02:18:34;3.20;1.00
8152;DHT22;4117;53.622;9.958;2023-12-22T02:21:00;3.30;1.00
8152;DHT22;4117;53.622;9.958;2023-12-22T02:23:29;3.30;1.00
8152;DHT22;4117;53.622;9.958;2023-12-22T02:26:06;3.30;1.00
8152;DHT22;4117;53.622;9.958;2023-12-22T02:28:35;3.30;1.00
8152;DHT22;4117;53.622;9.958;2023-12-22T02:31:09;3.40;1.00
8152;DHT22;4117;53.622;9.958;2023-12-22T02:33:38;3.40;1.00
8152;DHT22;4117;53.622;9.958;2023-12-22T02:36:07;3.40;1.00
8152;DHT22;4117;53.622;9.958;2023-12-22T02:38:37;3.50;1.00
8152;DHT22;4117;53.622;9.958;2023-12-22T02:41:06;3.50;1.00
8152;DHT22;4117;53.622;9.958;2023-12-22T02:43:33;3.50;1.00
8152;DHT22;4117;53.622;9.958;2023-12-22T02:46:00;3.50;1.00
8152;DHT22;4117;53.622;9.958;2023-12-22T02:48:27;3.50;1.00
8152;DHT22;4117;53.622;9.958;2023-12-22T02:50:54;3.50;1.00
8152;DHT22;4117;53.622;9.958;2023-12-22T02:53:21;3.50;1.00
8152;DHT22;4117;53.622;9.958;2023-12-22T02:55:49;3.50;1.00
8152;DHT22;4117;53.622;9.958;2023-12-22T02:58:16;3.50;1.00
8152;DHT22;4117;53.622;9.958;2023-12-22T03:00:43;3.50;1.00
8152;DHT22;4117;53.622;9.958;2023-12-22T03:03:10;3.40;1.00
8152;DHT22;4117;53.622;9.958;2023-12-22T03:05:37;3.40;1.00
8152;DHT22;4117;53.622;9.958;2023-12-22T03:08:04;3.40;1.00
8152;DHT22;4117;53.622;9.958;2023-12-22T03:10:31;3.30;1.00
8152;DHT22;4117;53.622;9.958;2023-12-22T03:12:59;3.30;1.00
8152;DHT22;4117;53.622;9.958;2023-12-22T03:15:26;3.20;1.00
8152;DHT22;4117;53.622;9.958;2023-12-22T03:17:53;3.20;1.00
8152;DHT22;4117;53.622;9.958;2023-12-22T03:20:20;3.20;1.00
8152;DHT22;4117;53.622;9.958;2023-12-22T03:22:47;3.20;1.00
8152;DHT22;4117;53.622;9.958;2023-12-22T03:25:14;3.10;1.00
8152;DHT22;4117;53.622;9.958;2023-12-22T03:27:41;3.10;1.00
8152;DHT22;4117;53.622;9.958;2023-12-22T03:30:10;3.10;1.00
8152;DHT22;4117;53.622;9.958;2023-12-22T03:32:37;3.00;1.00
8152;DHT22;4117;53.622;9.958;2023-12-22T03:35:05;3.00;1.00
8152;DHT22;4117;53.622;9.958;2023-12-22T03:37:32;3.10;1.00
8152;DHT22;4117;53.622;9.958;2023-12-22T03:39:58;3.00;1.00
8152;DHT22;4117;53.622;9.958;2023-12-22T03:42:26;3.00;1.00
8152;DHT22;4117;53.622;9.958;2023-12-22T03:44:53;3.00;1.00
8152;DHT22;4117;53.622;9.958;2023-12-22T03:47:21;2.90;1.00
8152;DHT22;4117;53.622;9.958;2023-12-22T03:49:48;3.00;1.00
8152;DHT22;4117;53.622;9.958;2023-12-22T03:52:15;2.90;1.00
8152;DHT22;4117;53.622;9.958;2023-12-22T03:54:42;3.00;1.00
8152;DHT22;4117;53.622;9.958;2023-12-22T03:57:08;3.00;1.00
8152;DHT22;4117;53.622;9.958;2023-12-22T03:59:35;3.10;1.00
8152;DHT22;4117;53.622;9.958;2023-12-22T04:02:02;3.10;1.00
8152;DHT22;4117;53.622;9.958;2023-12-22T04:04:31;3.10;1.00
8152;DHT22;4117;53.622;9.958;2023-12-22T04:06:58;3.10;1.00
8152;DHT22;4117;53.622;9.958;2023-12-22T04:09:24;3.10;1.00
8152;DHT22;4117;53.622;9.958;2023-12-22T04:11:51;3.20;1.00
8152;DHT22;4117;53.622;9.958;2023-12-22T04:14:18;3.20;1.00
8152;DHT22;4117;53.622;9.958;2023-12-22T04:16:45;3.40;1.00
8152;DHT22;4117;53.622;9.958;2023-12-22T04:19:12;3.50;1.00
8152;DHT22;4117;53.622;9.958;2023-12-22T04:21:41;3.60;1.00
8152;DHT22;4117;53.622;9.958;2023-12-22T04:24:08;3.60;1.00
8152;DHT22;4117;53.622;9.958;2023-12-22T04:26:36;3.70;1.00
8152;DHT22;4117;53.622;9.958;2023-12-22T04:29:03;3.70;1.00
8152;DHT22;4117;53.622;9.958;2023-12-22T04:31:29;3.70;1.00
8152;DHT22;4117;53.622;9.958;2023-12-22T04:33:56;3.70;1.00
8152;DHT22;4117;53.622;9.958;2023-12-22T04:36:23;3.70;1.00
8152;DHT22;4117;53.622;9.958;2023-12-22T04:38:52;3.70;1.00
8152;DHT22;4117;53.622;9.958;2023-12-22T04:41:18;3.70;1.00
8152;DHT22;4117;53.622;9.958;2023-12-22T04:43:45;3.80;1.00
8152;DHT22;4117;53.622;9.958;2023-12-22T04:46:12;3.80;1.00
8152;DHT22;4117;53.622;9.958;2023-12-22T04:48:39;3.90;1.00
8152;DHT22;4117;53.622;9.958;2023-12-22T04:51:06;4.00;1.00
8152;DHT22;4117;53.622;9.958;2023-12-22T04:53:33;4.00;1.00
8152;DHT22;4117;53.622;9.958;2023-12-22T04:56:01;4.00;1.00
8152;DHT22;4117;53.622;9.958;2023-12-22T04:58:28;4.00;1.00
8152;DHT22;4117;53.622;9.958;2023-12-22T05:00:55;4.10;1.00
8152;DHT22;4117;53.622;9.958;2023-12-22T05:03:22;4.10;1.00
8152;DHT22;4117;53.622;9.958;2023-12-22T05:05:49;4.10;1.00
8152;DHT22;4117;53.622;9.958;2023-12-22T05:08:16;4.20;1.00
8152;DHT22;4117;53.622;9.958;2023-12-22T05:10:43;4.20;1.00
8152;DHT22;4117;53.622;9.958;2023-12-22T05:13:11;4.20;1.00
8152;DHT22;4117;53.622;9.958;2023-12-22T05:15:38;4.10;1.00
8152;DHT22;4117;53.622;9.958;2023-12-22T05:18:05;3.80;1.00
8152;DHT22;4117;53.622;9.958;2023-12-22T05:20:32;3.60;1.00
8152;DHT22;4117;53.622;9.958;2023-12-22T05:22:59;3.50;1.00
8152;DHT22;4117;53.622;9.958;2023-12-22T05:25:26;3.40;1.00
8152;DHT22;4117;53.622;9.958;2023-12-22T05:27:53;3.30;1.00
8152;DHT22;4117;53.622;9.958;2023-12-22T05:30:22;3.40;1.00
8152;DHT22;4117;53.622;9.958;2023-12-22T05:32:48;3.30;1.00
8152;DHT22;4117;53.622;9.958;2023-12-22T05:35:15;3.30;1.00
8152;DHT22;4117;53.622;9.958;2023-12-22T05:37:42;3.30;1.00
8152;DHT22;4117;53.622;9.958;2023-12-22T05:40:10;3.40;1.00
8152;DHT22;4117;53.622;9.958;2023-12-22T05:42:37;3.40;1.00
8152;DHT22;4117;53.622;9.958;2023-12-22T05:45:05;3.10;1.00
8152;DHT22;4117;53.622;9.958;2023-12-22T05:47:33;2.90;1.00
8152;DHT22;4117;53.622;9.958;2023-12-22T05:50:00;2.80;1.00
8152;DHT22;4117;53.622;9.958;2023-12-22T05:52:27;2.80;1.00
8152;DHT22;4117;53.622;9.958;2023-12-22T05:54:54;2.70;1.00
8152;DHT22;4117;53.622;9.958;2023-12-22T05:57:21;2.60;1.00
8152;DHT22;4117;53.622;9.958;2023-12-22T05:59:48;2.60;1.00
8152;DHT22;4117;53.622;9.958;2023-12-22T06:02:14;2.50;1.00
8152;DHT22;4117;53.622;9.958;2023-12-22T06:04:43;2.40;1.00
8152;DHT22;4117;53.622;9.958;2023-12-22T06:07:10;2.40;1.00
8152;DHT22;4117;53.622;9.958;2023-12-22T06:09:37;2.40;1.00
8152;DHT22;4117;53.622;9.958;2023-12-22T06:12:05;2.40;1.00
8152;DHT22;4117;53.622;9.958;2023-12-22T06:14:32;2.40;1.00
8152;DHT22;4117;53.622;9.958;2023-12-22T06:17:00;2.40;1.00
8152;DHT22;4117;53.622;9.958;2023-12-22T06:19:27;2.50;1.00
8152;DHT22;4117;53.622;9.958;2023-12-22T06:21:57;2.50;1.00
8152;DHT22;4117;53.622;9.958;2023-12-22T06:24:25;2.50;1.00
8152;DHT22;4117;53.622;9.958;2023-12-22T06:26:52;2.50;1.00
8152;DHT22;4117;53.622;9.958;2023-12-22T06:29:20;2.60;1.00
8152;DHT22;4117;53.622;9.958;2023-12-22T06:31:47;2.60;1.00
8152;DHT22;4117;53.622;9.958;2023-12-22T06:34:16;2.60;1.00
8152;DHT22;4117;53.622;9.958;2023-12-22T06:36:43;2.70;1.00
8152;DHT22;4117;53.622;9.958;2023-12-22T06:39:11;2.70;1.00
8152;DHT22;4117;53.622;9.958;2023-12-22T06:41:38;2.80;1.00
8152;DHT22;4117;53.622;9.958;2023-12-22T06:44:05;2.80;1.00
8152;DHT22;4117;53.622;9.958;2023-12-22T06:46:32;2.80;1.00
8152;DHT22;4117;53.622;9.958;2023-12-22T06:48:59;2.90;1.00
8152;DHT22;4117;53.622;9.958;2023-12-22T06:51:27;2.90;1.00
8152;DHT22;4117;53.622;9.958;2023-12-22T06:53:56;3.00;1.00
8152;DHT22;4117;53.622;9.958;2023-12-22T06:56:27;3.10;1.00
8152;DHT22;4117;53.622;9.958;2023-12-22T06:58:56;3.20;1.00
8152;DHT22;4117;53.622;9.958;2023-12-22T07:01:24;3.20;1.00
8152;DHT22;4117;53.622;9.958;2023-12-22T07:03:52;3.10;1.00
8152;DHT22;4117;53.622;9.958;2023-12-22T07:06:20;3.10;1.00
8152;DHT22;4117;53.622;9.958;2023-12-22T07:11:41;3.30;1.00
8152;DHT22;4117;53.622;9.958;2023-12-22T07:14:08;3.30;1.00
8152;DHT22;4117;53.622;9.958;2023-12-22T07:16:36;3.40;1.00
8152;DHT22;4117;53.622;9.958;2023-12-22T07:19:03;3.30;1.00
8152;DHT22;4117;53.622;9.958;2023-12-22T07:21:31;3.40;1.00
8152;DHT22;4117;53.622;9.958;2023-12-22T07:23:58;3.40;1.00
8152;DHT22;4117;53.622;9.958;2023-12-22T07:26:25;3.40;1.00
8152;DHT22;4117;53.622;9.958;2023-12-22T07:28:53;3.40;1.00
8152;DHT22;4117;53.622;9.958;2023-12-22T07:31:20;3.40;1.00
8152;DHT22;4117;53.622;9.958;2023-12-22T07:33:48;3.50;1.00
8152;DHT22;4117;53.622;9.958;2023-12-22T07:36:15;3.50;1.00
8152;DHT22;4117;53.622;9.958;2023-12-22T07:38:44;3.50;1.00
8152;DHT22;4117;53.622;9.958;2023-12-22T07:41:11;3.60;1.00
8152;DHT22;4117;53.622;9.958;2023-12-22T07:43:38;3.60;1.00
8152;DHT22;4117;53.622;9.958;2023-12-22T07:46:06;3.50;1.00
8152;DHT22;4117;53.622;9.958;2023-12-22T07:48:34;3.30;1.00
8152;DHT22;4117;53.622;9.958;2023-12-22T07:51:02;3.20;1.00
8152;DHT22;4117;53.622;9.958;2023-12-22T07:53:29;3.10;1.00
8152;DHT22;4117;53.622;9.958;2023-12-22T07:55:56;3.10;1.00
8152;DHT22;4117;53.622;9.958;2023-12-22T07:58:24;3.20;1.00
8152;DHT22;4117;53.622;9.958;2023-12-22T08:00:51;3.20;1.00
8152;DHT22;4117;53.622;9.958;2023-12-22T08:03:19;3.20;1.00
8152;DHT22;4117;53.622;9.958;2023-12-22T08:05:46;3.30;1.00
8152;DHT22;4117;53.622;9.958;2023-12-22T08:08:13;3.20;1.00
8152;DHT22;4117;53.622;9.958;2023-12-22T08:10:41;3.10;1.00
8152;DHT22;4117;53.622;9.958;2023-12-22T08:13:08;2.90;1.00
8152;DHT22;4117;53.622;9.958;2023-12-22T08:15:35;2.80;1.00
8152;DHT22;4117;53.622;9.958;2023-12-22T08:18:02;2.60;1.00
8152;DHT22;4117;53.622;9.958;2023-12-22T08:20:30;2.60;1.00
8152;DHT22;4117;53.622;9.958;2023-12-22T08:22:57;2.50;1.00
8152;DHT22;4117;53.622;9.958;2023-12-22T08:25:24;2.60;1.00
8152;DHT22;4117;53.622;9.958;2023-12-22T08:27:51;2.60;1.00
8152;DHT22;4117;53.622;9.958;2023-12-22T08:30:18;2.60;1.00
8152;DHT22;4117;53.622;9.958;2023-12-22T08:32:45;2.60;1.00
8152;DHT22;4117;53.622;9.958;2023-12-22T08:35:12;2.60;1.00
8152;DHT22;4117;53.622;9.958;2023-12-22T08:37:40;2.60;1.00
8152;DHT22;4117;53.622;9.958;2023-12-22T08:40:08;2.60;1.00
8152;DHT22;4117;53.622;9.958;2023-12-22T08:42:35;2.60;1.00
8152;DHT22;4117;53.622;9.958;2023-12-22T08:45:02;2.70;1.00
8152;DHT22;4117;53.622;9.958;2023-12-22T08:47:31;2.70;1.00
8152;DHT22;4117;53.622;9.958;2023-12-22T08:49:58;2.80;1.00
8152;DHT22;4117;53.622;9.958;2023-12-22T08:52:24;2.90;1.00
8152;DHT22;4117;53.622;9.958;2023-12-22T08:54:53;2.90;1.00
8152;DHT22;4117;53.622;9.958;2023-12-22T08:57:20;3.10;1.00
8152;DHT22;4117;53.622;9.958;2023-12-22T08:59:47;3.10;1.00
8152;DHT22;4117;53.622;9.958;2023-12-22T09:02:13;3.20;1.00
8152;DHT22;4117;53.622;9.958;2023-12-22T09:04:40;3.20;1.00
8152;DHT22;4117;53.622;9.958;2023-12-22T09:07:07;3.20;1.00
8152;DHT22;4117;53.622;9.958;2023-12-22T09:09:35;3.30;1.00
8152;DHT22;4117;53.622;9.958;2023-12-22T09:12:04;3.30;1.00
8152;DHT22;4117;53.622;9.958;2023-12-22T09:14:31;3.40;1.00
8152;DHT22;4117;53.622;9.958;2023-12-22T09:16:58;3.30;1.00
8152;DHT22;4117;53.622;9.958;2023-12-22T09:19:25;3.40;1.00
8152;DHT22;4117;53.622;9.958;2023-12-22T09:21:52;3.50;1.00
8152;DHT22;4117;53.622;9.958;2023-12-22T09:24:19;3.60;1.00
8152;DHT22;4117;53.622;9.958;2023-12-22T09:26:46;3.60;1.00
8152;DHT22;4117;53.622;9.958;2023-12-22T09:29:16;3.70;1.00
8152;DHT22;4117;53.622;9.958;2023-12-22T09:31:43;3.80;1.00
8152;DHT22;4117;53.622;9.958;2023-12-22T09:34:10;3.80;1.00
8152;DHT22;4117;53.622;9.958;2023-12-22T09:36:37;3.90;1.00
8152;DHT22;4117;53.622;9.958;2023-12-22T09:39:05;3.90;1.00
8152;DHT22;4117;53.622;9.958;2023-12-22T09:41:32;4.00;1.00
8152;DHT22;4117;53.622;9.958;2023-12-22T09:43:59;3.90;1.00
8152;DHT22;4117;53.622;9.958;2023-12-22T09:46:30;4.00;1.00
8152;DHT22;4117;53.622;9.958;2023-12-22T09:48:58;4.00;1.00
8152;DHT22;4117;53.622;9.958;2023-12-22T09:51:27;4.10;1.00
8152;DHT22;4117;53.622;9.958;2023-12-22T09:53:55;4.10;1.00
8152;DHT22;4117;53.622;9.958;2023-12-22T09:56:24;4.10;1.00
8152;DHT22;4117;53.622;9.958;2023-12-22T09:58:51;4.10;1.00
8152;DHT22;4117;53.622;9.958;2023-12-22T10:01:20;4.10;1.00
8152;DHT22;4117;53.622;9.958;2023-12-22T10:03:50;4.10;1.00
8152;DHT22;4117;53.622;9.958;2023-12-22T10:06:17;4.10;1.00
8152;DHT22;4117;53.622;9.958;2023-12-22T10:08:45;4.10;1.00
8152;DHT22;4117;53.622;9.958;2023-12-22T10:11:13;4.10;1.00
8152;DHT22;4117;53.622;9.958;2023-12-22T10:13:42;4.20;1.00
8152;DHT22;4117;53.622;9.958;2023-12-22T10:16:09;4.10;1.00
8152;DHT22;4117;53.622;9.958;2023-12-22T10:18:36;4.10;1.00
8152;DHT22;4117;53.622;9.958;2023-12-22T10:21:04;4.10;1.00
8152;DHT22;4117;53.622;9.958;2023-12-22T10:23:31;4.20;1.00
8152;DHT22;4117;53.622;9.958;2023-12-22T10:25:58;4.20;1.00
8152;DHT22;4117;53.622;9.958;2023-12-22T10:28:27;4.30;1.00
8152;DHT22;4117;53.622;9.958;2023-12-22T10:30:54;4.30;1.00
8152;DHT22;4117;53.622;9.958;2023-12-22T10:33:24;4.30;1.00
8152;DHT22;4117;53.622;9.958;2023-12-22T10:35:54;4.30;1.00
8152;DHT22;4117;53.622;9.958;2023-12-22T10:38:22;4.30;1.00
8152;DHT22;4117;53.622;9.958;2023-12-22T10:40:50;4.30;1.00
8152;DHT22;4117;53.622;9.958;2023-12-22T10:43:16;4.30;1.00
8152;DHT22;4117;53.622;9.958;2023-12-22T10:45:43;4.30;1.00
8152;DHT22;4117;53.622;9.958;2023-12-22T10:48:11;4.30;1.00
8152;DHT22;4117;53.622;9.958;2023-12-22T10:50:40;4.30;1.00
8152;DHT22;4117;53.622;9.958;2023-12-22T10:53:07;4.20;1.00
8152;DHT22;4117;53.622;9.958;2023-12-22T10:55:36;4.10;1.00
8152;DHT22;4117;53.622;9.958;2023-12-22T10:58:03;4.10;1.00
8152;DHT22;4117;53.622;9.958;2023-12-22T11:00:32;4.10;1.00
8152;DHT22;4117;53.622;9.958;2023-12-22T11:03:01;4.00;1.00
8152;DHT22;4117;53.622;9.958;2023-12-22T11:05:35;4.00;1.00
8152;DHT22;4117;53.622;9.958;2023-12-22T11:08:08;4.00;1.00
8152;DHT22;4117;53.622;9.958;2023-12-22T11:10:40;4.00;1.00
8152;DHT22;4117;53.622;9.958;2023-12-22T11:13:09;4.00;1.00
8152;DHT22;4117;53.622;9.958;2023-12-22T11:15:36;4.00;1.00
8152;DHT22;4117;53.622;9.958;2023-12-22T11:18:04;4.00;1.00
8152;DHT22;4117;53.622;9.958;2023-12-22T11:20:32;4.00;1.00
8152;DHT22;4117;53.622;9.958;2023-12-22T11:23:00;4.00;1.00
8152;DHT22;4117;53.622;9.958;2023-12-22T11:25:28;4.00;1.00
8152;DHT22;4117;53.622;9.958;2023-12-22T11:27:59;4.00;1.00
8152;DHT22;4117;53.622;9.958;2023-12-22T11:30:28;4.00;1.00
8152;DHT22;4117;53.622;9.958;2023-12-22T11:32:56;4.00;1.00
8152;DHT22;4117;53.622;9.958;2023-12-22T11:35:24;4.00;1.00
8152;DHT22;4117;53.622;9.958;2023-12-22T11:37:52;4.00;1.00
8152;DHT22;4117;53.622;9.958;2023-12-22T11:40:21;3.90;1.00
8152;DHT22;4117;53.622;9.958;2023-12-22T11:42:49;3.90;1.00
8152;DHT22;4117;53.622;9.958;2023-12-22T11:45:19;3.90;1.00
8152;DHT22;4117;53.622;9.958;2023-12-22T11:47:48;4.00;1.00
8152;DHT22;4117;53.622;9.958;2023-12-22T11:50:28;4.10;1.00
8152;DHT22;4117;53.622;9.958;2023-12-22T11:52:56;4.20;1.00
8152;DHT22;4117;53.622;9.958;2023-12-22T11:55:57;4.20;1.00
8152;DHT22;4117;53.622;9.958;2023-12-22T11:58:34;4.30;1.00
8152;DHT22;4117;53.622;9.958;2023-12-22T12:01:05;4.40;1.00
8152;DHT22;4117;53.622;9.958;2023-12-22T12:03:32;4.40;1.00
8152;DHT22;4117;53.622;9.958;2023-12-22T12:06:15;4.60;1.00
8152;DHT22;4117;53.622;9.958;2023-12-22T12:08:43;4.70;1.00
8152;DHT22;4117;53.622;9.958;2023-12-22T12:11:10;4.70;1.00
8152;DHT22;4117;53.622;9.958;2023-12-22T12:13:42;4.70;1.00
8152;DHT22;4117;53.622;9.958;2023-12-22T12:16:12;4.70;1.00
8152;DHT22;4117;53.622;9.958;2023-12-22T12:18:40;4.80;1.00
8152;DHT22;4117;53.622;9.958;2023-12-22T12:21:09;4.80;1.00
8152;DHT22;4117;53.622;9.958;2023-12-22T12:23:36;4.80;1.00
8152;DHT22;4117;53.622;9.958;2023-12-22T12:26:06;4.80;1.00
8152;DHT22;4117;53.622;9.958;2023-12-22T12:28:34;4.80;1.00
8152;DHT22;4117;53.622;9.958;2023-12-22T12:31:04;4.80;1.00
8152;DHT22;4117;53.622;9.958;2023-12-22T12:33:32;4.90;1.00
8152;DHT22;4117;53.622;9.958;2023-12-22T12:36:01;4.90;1.00
8152;DHT22;4117;53.622;9.958;2023-12-22T12:38:43;4.80;1.00
8152;DHT22;4117;53.622;9.958;2023-12-22T12:41:13;4.80;1.00
8152;DHT22;4117;53.622;9.958;2023-12-22T12:43:42;4.80;1.00
8152;DHT22;4117;53.622;9.958;2023-12-22T12:46:10;4.70;1.00
8152;DHT22;4117;53.622;9.958;2023-12-22T12:48:38;4.80;1.00
8152;DHT22;4117;53.622;9.958;2023-12-22T12:51:06;4.70;1.00
8152;DHT22;4117;53.622;9.958;2023-12-22T12:53:34;4.70;1.00
8152;DHT22;4117;53.622;9.958;2023-12-22T12:56:03;4.60;1.00
8152;DHT22;4117;53.622;9.958;2023-12-22T12:58:31;4.40;1.00
8152;DHT22;4117;53.622;9.958;2023-12-22T13:01:07;4.20;1.00
8152;DHT22;4117;53.622;9.958;2023-12-22T13:03:52;4.20;1.00
8152;DHT22;4117;53.622;9.958;2023-12-22T13:06:19;4.10;1.00
8152;DHT22;4117;53.622;9.958;2023-12-22T13:08:50;4.10;1.00
8152;DHT22;4117;53.622;9.958;2023-12-22T13:11:20;4.10;1.00
8152;DHT22;4117;53.622;9.958;2023-12-22T13:13:48;4.20;1.00
8152;DHT22;4117;53.622;9.958;2023-12-22T13:16:18;4.20;1.00
8152;DHT22;4117;53.622;9.958;2023-12-22T13:18:45;4.20;1.00
8152;DHT22;4117;53.622;9.958;2023-12-22T13:21:14;4.20;1.00
8152;DHT22;4117;53.622;9.958;2023-12-22T13:23:41;4.30;1.00
8152;DHT22;4117;53.622;9.958;2023-12-22T13:26:18;4.30;1.00
8152;DHT22;4117;53.622;9.958;2023-12-22T13:28:45;4.30;1.00
8152;DHT22;4117;53.622;9.958;2023-12-22T13:31:12;4.30;1.00
8152;DHT22;4117;53.622;9.958;2023-12-22T13:33:40;4.30;1.00
8152;DHT22;4117;53.622;9.958;2023-12-22T13:36:07;4.40;1.00
8152;DHT22;4117;53.622;9.958;2023-12-22T13:38:36;4.40;1.00
8152;DHT22;4117;53.622;9.958;2023-12-22T13:41:04;4.40;1.00
8152;DHT22;4117;53.622;9.958;2023-12-22T13:43:31;4.50;1.00
8152;DHT22;4117;53.622;9.958;2023-12-22T13:45:58;4.40;1.00
8152;DHT22;4117;53.622;9.958;2023-12-22T13:48:25;4.40;1.00
8152;DHT22;4117;53.622;9.958;2023-12-22T13:50:57;4.30;1.00
8152;DHT22;4117;53.622;9.958;2023-12-22T13:53:24;4.20;1.00
8152;DHT22;4117;53.622;9.958;2023-12-22T13:55:56;4.20;1.00
8152;DHT22;4117;53.622;9.958;2023-12-22T13:58:24;4.20;1.00
8152;DHT22;4117;53.622;9.958;2023-12-22T14:00:51;4.20;1.00
8152;DHT22;4117;53.622;9.958;2023-12-22T14:03:18;4.20;1.00
8152;DHT22;4117;53.622;9.958;2023-12-22T14:05:47;4.20;1.00
8152;DHT22;4117;53.622;9.958;2023-12-22T14:08:14;4.20;1.00
8152;DHT22;4117;53.622;9.958;2023-12-22T14:10:45;4.20;1.00
8152;DHT22;4117;53.622;9.958;2023-12-22T14:13:13;4.20;1.00
8152;DHT22;4117;53.622;9.958;2023-12-22T14:15:41;4.30;1.00
8152;DHT22;4117;53.622;9.958;2023-12-22T14:18:08;4.30;1.00
8152;DHT22;4117;53.622;9.958;2023-12-22T14:20:35;4.30;1.00
8152;DHT22;4117;53.622;9.958;2023-12-22T14:23:02;4.20;1.00
8152;DHT22;4117;53.622;9.958;2023-12-22T14:25:30;4.20;1.00
8152;DHT22;4117;53.622;9.958;2023-12-22T14:27:57;4.20;1.00
8152;DHT22;4117;53.622;9.958;2023-12-22T14:30:26;4.20;1.00
8152;DHT22;4117;53.622;9.958;2023-12-22T14:32:52;4.20;1.00
8152;DHT22;4117;53.622;9.958;2023-12-22T14:35:19;4.20;1.00
8152;DHT22;4117;53.622;9.958;2023-12-22T14:37:46;4.20;1.00
8152;DHT22;4117;53.622;9.958;2023-12-22T14:40:13;4.20;1.00
8152;DHT22;4117;53.622;9.958;2023-12-22T14:42:40;4.20;1.00
8152;DHT22;4117;53.622;9.958;2023-12-22T14:45:08;4.20;1.00
8152;DHT22;4117;53.622;9.958;2023-12-22T14:47:36;4.20;1.00
8152;DHT22;4117;53.622;9.958;2023-12-22T14:50:04;4.20;1.00
8152;DHT22;4117;53.622;9.958;2023-12-22T14:52:31;4.20;1.00
8152;DHT22;4117;53.622;9.958;2023-12-22T14:54:58;4.20;1.00
8152;DHT22;4117;53.622;9.958;2023-12-22T14:57:25;4.10;1.00
8152;DHT22;4117;53.622;9.958;2023-12-22T14:59:54;4.10;1.00
8152;DHT22;4117;53.622;9.958;2023-12-22T15:02:21;4.20;1.00
8152;DHT22;4117;53.622;9.958;2023-12-22T15:04:49;4.10;1.00
8152;DHT22;4117;53.622;9.958;2023-12-22T15:07:16;4.20;1.00
8152;DHT22;4117;53.622;9.958;2023-12-22T15:09:43;4.20;1.00
8152;DHT22;4117;53.622;9.958;2023-12-22T15:12:11;4.20;1.00
8152;DHT22;4117;53.622;9.958;2023-12-22T15:14:43;4.20;1.00
8152;DHT22;4117;53.622;9.958;2023-12-22T15:17:10;4.20;1.00
8152;DHT22;4117;53.622;9.958;2023-12-22T15:19:39;4.20;1.00
8152;DHT22;4117;53.622;9.958;2023-12-22T15:22:09;4.20;1.00
8152;DHT22;4117;53.622;9.958;2023-12-22T15:24:36;4.20;1.00
8152;DHT22;4117;53.622;9.958;2023-12-22T15:27:05;4.20;1.00
8152;DHT22;4117;53.622;9.958;2023-12-22T15:29:33;4.20;1.00
8152;DHT22;4117;53.622;9.958;2023-12-22T15:31:59;4.20;1.00
8152;DHT22;4117;53.622;9.958;2023-12-22T15:34:26;4.20;1.00
8152;DHT22;4117;53.622;9.958;2023-12-22T15:36:53;4.10;1.00
8152;DHT22;4117;53.622;9.958;2023-12-22T15:39:22;4.10;1.00
8152;DHT22;4117;53.622;9.958;2023-12-22T15:41:49;4.10;1.00
8152;DHT22;4117;53.622;9.958;2023-12-22T15:44:16;4.20;1.00
8152;DHT22;4117;53.622;9.958;2023-12-22T15:46:43;4.10;1.00
8152;DHT22;4117;53.622;9.958;2023-12-22T15:49:10;4.10;1.00
8152;DHT22;4117;53.622;9.958;2023-12-22T15:51:37;4.00;1.00
8152;DHT22;4117;53.622;9.958;2023-12-22T15:54:04;3.90;1.00
8152;DHT22;4117;53.622;9.958;2023-12-22T15:56:32;3.90;1.00
8152;DHT22;4117;53.622;9.958;2023-12-22T15:58:59;3.90;1.00
8152;DHT22;4117;53.622;9.958;2023-12-22T16:01:26;3.80;1.00
8152;DHT22;4117;53.622;9.958;2023-12-22T16:03:53;3.90;1.00
8152;DHT22;4117;53.622;9.958;2023-12-22T16:06:20;3.80;1.00
8152;DHT22;4117;53.622;9.958;2023-12-22T16:08:47;3.90;1.00
8152;DHT22;4117;53.622;9.958;2023-12-22T16:11:14;3.90;1.00
8152;DHT22;4117;53.622;9.958;2023-12-22T16:13:42;3.90;1.00
8152;DHT22;4117;53.622;9.958;2023-12-22T16:16:09;3.90;1.00
8152;DHT22;4117;53.622;9.958;2023-12-22T16:18:41;3.80;1.00
8152;DHT22;4117;53.622;9.958;2023-12-22T16:21:07;3.90;1.00
8152;DHT22;4117;53.622;9.958;2023-12-22T16:23:34;3.90;1.00
8152;DHT22;4117;53.622;9.958;2023-12-22T16:26:01;3.90;1.00
8152;DHT22;4117;53.622;9.958;2023-12-22T16:28:30;3.90;1.00
8152;DHT22;4117;53.622;9.958;2023-12-22T16:30:58;3.90;1.00
8152;DHT22;4117;53.622;9.958;2023-12-22T16:33:25;3.90;1.00
8152;DHT22;4117;53.622;9.958;2023-12-22T16:35:52;3.90;1.00
8152;DHT22;4117;53.622;9.958;2023-12-22T16:38:19;3.80;1.00
8152;DHT22;4117;53.622;9.958;2023-12-22T16:40:46;3.80;1.00